Time;durP1;ratioP1;P1;durP2;ratioP2;P2;SDS_P1;SDS_P2;PMS_P1;PMS_P2;Temp;Humidity;BMP_temperature;BMP_pressure;BME280_temperature;BME280_humidity;BME280_pressure;Samples;Min_cycle;Max_cycle;Signal;HPM_P1;HPM_P2
2022/05/09 00:02:17;;;;;;;13.80;4.03;;;7.00;99.90;;;;;;5099689;28;20047;-67
2022/05/09 00:04:43;;;;;;;13.32;4.07;;;7.00;99.90;;;;;;5079245;28;20109;-67
2022/05/09 00:07:09;;;;;;;19.13;4.20;;;6.90;99.90;;;;;;5089412;28;20043;-67
2022/05/09 00:09:34;;;;;;;19.58;5.20;;;6.90;99.90;;;;;;5078564;28;20044;-67
2022/05/09 00:12:01;;;;;;;18.08;4.68;;;6.90;99.90;;;;;;5077225;28;20166;-67
2022/05/09 00:14:27;;;;;;;12.18;3.95;;;6.90;99.90;;;;;;5087572;28;20090;-68
2022/05/09 00:16:53;;;;;;;15.75;4.57;;;6.90;99.90;;;;;;5093973;28;20036;-67
2022/05/09 00:19:20;;;;;;;16.70;4.60;;;6.90;99.90;;;;;;5091985;28;20105;-67
2022/05/09 00:21:48;;;;;;;16.63;4.10;;;6.90;99.90;;;;;;5078849;28;20067;-67
2022/05/09 00:24:17;;;;;;;17.15;4.75;;;6.80;99.90;;;;;;5082673;28;20053;-67
2022/05/09 00:26:44;;;;;;;17.98;4.35;;;6.80;99.90;;;;;;5097737;28;20471;-67
2022/05/09 00:29:11;;;;;;;15.45;4.15;;;6.80;99.90;;;;;;5102623;28;20101;-67
2022/05/09 00:31:39;;;;;;;14.25;4.30;;;6.80;99.90;;;;;;5100925;28;20457;-67
2022/05/09 00:34:05;;;;;;;16.85;4.72;;;6.80;99.90;;;;;;5079386;28;20040;-67
2022/05/09 00:36:31;;;;;;;15.60;4.50;;;6.70;99.90;;;;;;5078248;28;20050;-67
2022/05/09 00:39:01;;;;;;;17.60;4.13;;;6.70;99.90;;;;;;5096479;28;20035;-67
2022/05/09 00:41:37;;;;;;;13.68;5.00;;;6.70;99.90;;;;;;5080971;28;20036;-67
2022/05/09 00:44:09;;;;;;;19.35;4.88;;;6.70;99.90;;;;;;5083225;28;20083;-67
2022/05/09 00:46:37;;;;;;;19.90;5.05;;;6.70;99.90;;;;;;5098144;28;20039;-67
2022/05/09 00:49:31;;;;;;;16.85;5.05;;;6.70;99.90;;;;;;5097549;28;20093;-67
2022/05/09 00:52:14;;;;;;;20.23;5.30;;;6.70;99.90;;;;;;5079971;28;20146;-67
2022/05/09 00:54:47;;;;;;;18.65;4.68;;;6.60;99.90;;;;;;5077666;28;20071;-67
2022/05/09 00:57:42;;;;;;;20.08;4.68;;;6.60;99.90;;;;;;5076445;28;20074;-67
2022/05/09 01:00:12;;;;;;;16.88;4.30;;;6.60;99.90;;;;;;5077672;28;20048;-67
2022/05/09 01:02:40;;;;;;;20.88;4.47;;;6.60;99.90;;;;;;5078076;28;20503;-67
2022/05/09 01:05:07;;;;;;;17.38;4.75;;;6.70;99.90;;;;;;5092653;28;20677;-67
2022/05/09 01:07:33;;;;;;;19.58;5.15;;;6.60;99.90;;;;;;5097985;28;20532;-67
2022/05/09 01:09:59;;;;;;;14.82;4.88;;;6.50;99.90;;;;;;5097563;28;20039;-68
2022/05/09 01:12:29;;;;;;;14.55;3.83;;;6.50;99.90;;;;;;5101189;28;20064;-67
2022/05/09 01:14:59;;;;;;;16.00;4.55;;;6.40;99.90;;;;;;5097223;28;20036;-67
2022/05/09 01:17:25;;;;;;;17.50;4.68;;;6.40;99.90;;;;;;5098728;28;20031;-67
2022/05/09 01:19:53;;;;;;;20.30;5.05;;;6.30;99.90;;;;;;5083393;28;20108;-67
2022/05/09 01:22:25;;;;;;;19.42;5.53;;;6.20;99.90;;;;;;5100736;28;20514;-67
2022/05/09 01:24:53;;;;;;;19.60;5.63;;;6.20;99.90;;;;;;5100441;28;20048;-67
2022/05/09 01:27:19;;;;;;;15.35;5.20;;;6.20;99.90;;;;;;5097669;28;20040;-67
2022/05/09 01:30:38;;;;;;;16.15;4.93;;;6.10;99.90;;;;;;5100489;28;20476;-67
2022/05/09 01:33:20;;;;;;;17.60;4.55;;;6.10;99.90;;;;;;5021770;28;20315;-66
2022/05/09 01:36:00;;;;;;;14.93;5.00;;;6.10;99.90;;;;;;4990109;28;20335;-67
2022/05/09 01:38:45;;;;;;;11.15;5.10;;;6.10;99.90;;;;;;5066485;28;20048;-66
2022/05/09 01:41:11;;;;;;;18.30;4.70;;;6.00;99.90;;;;;;5079588;28;20041;-67
2022/05/09 01:43:40;;;;;;;14.32;4.85;;;5.90;99.90;;;;;;5075573;28;20046;-67
2022/05/09 01:46:18;;;;;;;18.05;5.60;;;5.90;99.90;;;;;;5065189;28;20048;-66
2022/05/09 01:51:48;;;;;;;20.10;5.53;;;5.90;99.90;;;;;;5000368;28;20046;-66
2022/05/09 01:54:16;;;;;;;13.63;5.25;;;5.80;99.90;;;;;;4998631;28;20517;-67
2022/05/09 01:56:42;;;;;;;13.43;4.88;;;5.70;99.90;;;;;;5028441;28;20505;-66
2022/05/09 01:59:10;;;;;;;16.80;5.35;;;5.80;99.90;;;;;;5075945;28;20036;-66
2022/05/09 02:01:58;;;;;;;15.80;5.40;;;5.80;99.90;;;;;;5087162;28;20464;-66
2022/05/09 02:04:24;;;;;;;13.30;4.95;;;5.80;99.90;;;;;;5077742;28;20111;-67
2022/05/09 02:06:51;;;;;;;20.83;5.85;;;5.80;99.90;;;;;;5078693;28;20036;-67
2022/05/09 02:09:16;;;;;;;15.95;5.30;;;5.80;99.90;;;;;;5079863;28;20128;-67
2022/05/09 02:11:42;;;;;;;19.83;5.30;;;5.80;99.90;;;;;;5082372;28;20510;-67
2022/05/09 02:14:11;;;;;;;23.92;6.32;;;5.80;99.90;;;;;;5080867;28;20558;-67
2022/05/09 02:16:37;;;;;;;17.50;5.65;;;5.80;99.90;;;;;;5076407;28;20033;-68
2022/05/09 02:19:05;;;;;;;15.43;5.15;;;5.80;99.90;;;;;;5072624;28;20033;-66
2022/05/09 02:21:31;;;;;;;22.75;5.40;;;5.80;99.90;;;;;;5079245;28;20044;-66
2022/05/09 02:23:57;;;;;;;17.70;4.85;;;5.80;99.90;;;;;;5066541;28;20363;-66
2022/05/09 02:26:24;;;;;;;20.02;6.63;;;5.80;99.90;;;;;;5079292;28;20357;-66
2022/05/09 02:28:50;;;;;;;16.60;5.38;;;5.80;99.90;;;;;;5081520;28;20032;-67
2022/05/09 02:31:20;;;;;;;17.45;5.55;;;5.80;99.90;;;;;;5081943;28;20094;-67
2022/05/09 02:33:46;;;;;;;18.30;5.38;;;5.80;99.90;;;;;;5099693;28;20040;-67
2022/05/09 02:36:12;;;;;;;17.77;5.82;;;5.80;99.90;;;;;;5098937;28;20035;-66
2022/05/09 02:38:38;;;;;;;18.33;5.85;;;5.80;99.90;;;;;;5078863;28;20044;-66
2022/05/09 02:41:04;;;;;;;20.45;5.60;;;5.80;99.90;;;;;;5079404;28;20460;-66
2022/05/09 02:43:31;;;;;;;18.70;6.07;;;5.70;99.90;;;;;;5079246;28;20040;-67
2022/05/09 02:46:03;;;;;;;18.10;5.65;;;5.70;99.90;;;;;;5095430;28;20070;-67
2022/05/09 02:48:33;;;;;;;18.05;5.72;;;5.70;99.90;;;;;;5093513;28;20032;-66
2022/05/09 02:50:59;;;;;;;17.08;5.53;;;5.70;99.90;;;;;;5077230;28;20044;-66
2022/05/09 02:53:24;;;;;;;20.95;5.30;;;5.70;99.90;;;;;;5077848;28;20101;-67
2022/05/09 02:55:50;;;;;;;15.10;4.72;;;5.70;99.90;;;;;;5107377;28;20031;-67
2022/05/09 02:58:16;;;;;;;17.40;5.28;;;5.70;99.90;;;;;;5101150;28;20439;-67
2022/05/09 03:00:42;;;;;;;12.43;4.82;;;5.70;99.90;;;;;;5087610;28;20052;-67
2022/05/09 03:05:52;;;;;;;17.33;4.95;;;5.60;99.90;;;;;;5094496;28;20053;-67
2022/05/09 03:08:18;;;;;;;15.63;5.07;;;5.60;99.90;;;;;;5079761;28;20122;-67
2022/05/09 03:10:44;;;;;;;18.73;5.50;;;5.60;99.90;;;;;;5098565;28;20048;-67
2022/05/09 03:13:12;;;;;;;13.77;5.70;;;5.60;99.90;;;;;;5062391;28;20045;-67
2022/05/09 03:15:41;;;;;;;18.67;5.53;;;5.60;99.90;;;;;;5078786;28;20081;-67
2022/05/09 03:18:08;;;;;;;14.57;5.43;;;5.60;99.90;;;;;;5100241;28;20444;-67
2022/05/09 03:20:34;;;;;;;16.73;5.97;;;5.60;99.90;;;;;;5096989;28;20103;-67
2022/05/09 03:23:02;;;;;;;15.80;5.57;;;5.50;99.90;;;;;;5065580;28;20083;-67
2022/05/09 03:25:28;;;;;;;17.17;5.50;;;5.50;99.90;;;;;;5066661;28;20147;-66
2022/05/09 03:27:53;;;;;;;15.73;5.80;;;5.50;99.90;;;;;;5077108;28;20123;-67
2022/05/09 03:30:19;;;;;;;19.48;5.80;;;5.50;99.90;;;;;;5082525;28;20465;-67
2022/05/09 03:32:47;;;;;;;22.35;6.32;;;5.50;99.90;;;;;;5078956;28;20101;-67
2022/05/09 03:35:12;;;;;;;25.98;5.93;;;5.50;99.90;;;;;;5102119;28;20115;-67
2022/05/09 03:37:38;;;;;;;15.85;6.07;;;5.50;99.90;;;;;;5095742;28;20719;-67
2022/05/09 03:40:05;;;;;;;20.58;5.60;;;5.50;99.90;;;;;;5059461;28;20040;-67
2022/05/09 03:42:31;;;;;;;14.70;5.47;;;5.50;99.90;;;;;;5083796;28;20100;-67
2022/05/09 03:44:57;;;;;;;19.95;5.15;;;5.50;99.90;;;;;;5094614;28;20032;-67
2022/05/09 03:47:23;;;;;;;17.05;5.90;;;5.50;99.90;;;;;;5082082;28;20040;-66
2022/05/09 03:49:50;;;;;;;20.00;6.45;;;5.40;99.90;;;;;;5090799;28;20146;-66
2022/05/09 03:52:16;;;;;;;12.10;5.40;;;5.40;99.90;;;;;;5075681;28;20122;-66
2022/05/09 03:54:42;;;;;;;15.63;5.43;;;5.40;99.90;;;;;;5083411;28;20036;-66
2022/05/09 03:57:08;;;;;;;17.80;6.60;;;5.40;99.90;;;;;;5078759;28;20028;-67
2022/05/09 03:59:34;;;;;;;19.70;6.82;;;5.40;99.90;;;;;;5080770;28;20437;-66
2022/05/09 04:01:59;;;;;;;19.13;5.85;;;5.40;99.90;;;;;;5079766;28;20479;-66
2022/05/09 04:04:25;;;;;;;20.38;6.03;;;5.40;99.90;;;;;;5080499;28;20052;-66
2022/05/09 04:06:51;;;;;;;17.88;6.57;;;5.40;99.90;;;;;;5080120;28;20035;-67
2022/05/09 04:09:18;;;;;;;20.60;6.38;;;5.40;99.90;;;;;;5099900;28;20106;-67
2022/05/09 04:11:45;;;;;;;19.05;6.72;;;5.40;99.90;;;;;;5098493;28;20075;-67
2022/05/09 04:14:11;;;;;;;19.48;6.63;;;5.40;99.90;;;;;;5078399;28;20062;-67
2022/05/09 04:16:49;;;;;;;20.55;6.70;;;5.40;99.90;;;;;;5100681;28;20036;-67
2022/05/09 04:19:15;;;;;;;20.55;7.00;;;5.40;99.90;;;;;;5082709;28;20086;-67
2022/05/09 04:21:41;;;;;;;21.55;7.18;;;5.40;99.90;;;;;;5095711;28;20140;-67
2022/05/09 04:24:07;;;;;;;20.17;8.20;;;5.50;99.90;;;;;;5099462;28;20031;-67
2022/05/09 04:26:32;;;;;;;18.50;7.28;;;5.40;99.90;;;;;;5097698;28;20044;-67
2022/05/09 04:28:59;;;;;;;25.40;7.80;;;5.40;99.90;;;;;;5076200;28;20036;-67
2022/05/09 04:31:26;;;;;;;17.17;6.35;;;5.50;99.90;;;;;;5095795;28;20109;-67
2022/05/09 04:33:52;;;;;;;23.50;8.20;;;5.50;99.90;;;;;;5094518;28;20305;-67
2022/05/09 04:36:18;;;;;;;15.65;6.75;;;5.50;99.90;;;;;;5101668;28;20078;-67
2022/05/09 04:38:45;;;;;;;17.35;7.60;;;5.50;99.90;;;;;;5079635;28;20068;-67
2022/05/09 04:41:13;;;;;;;20.52;7.93;;;5.50;99.90;;;;;;5105123;28;20035;-67
2022/05/09 04:43:38;;;;;;;16.05;7.38;;;5.60;99.90;;;;;;5079784;28;20048;-67
2022/05/09 04:46:05;;;;;;;23.08;8.32;;;5.60;99.90;;;;;;5100538;28;20503;-67
2022/05/09 04:48:31;;;;;;;23.02;7.47;;;5.60;99.90;;;;;;5100994;28;20122;-67
2022/05/09 04:50:58;;;;;;;20.48;7.05;;;5.70;99.90;;;;;;5082064;28;20058;-67
2022/05/09 04:53:25;;;;;;;19.60;7.40;;;5.70;99.90;;;;;;5078460;28;20684;-67
2022/05/09 04:55:51;;;;;;;23.02;8.65;;;5.80;99.90;;;;;;5097156;28;20090;-67
2022/05/09 04:58:20;;;;;;;18.42;7.38;;;5.90;99.90;;;;;;5101773;28;20079;-67
2022/05/09 05:00:46;;;;;;;19.17;7.38;;;5.90;99.90;;;;;;5098614;28;20083;-67
2022/05/09 05:03:13;;;;;;;18.45;7.30;;;6.00;99.90;;;;;;5101068;28;20073;-67
2022/05/09 05:05:40;;;;;;;22.02;7.40;;;6.10;99.90;;;;;;5097512;28;20036;-67
2022/05/09 05:08:06;;;;;;;20.42;7.57;;;6.20;99.90;;;;;;5086161;28;20391;-66
2022/05/09 05:10:32;;;;;;;19.02;7.72;;;6.30;99.90;;;;;;5084424;28;20036;-67
2022/05/09 05:12:59;;;;;;;16.92;8.18;;;6.30;99.90;;;;;;5083482;28;20080;-67
2022/05/09 05:15:26;;;;;;;19.00;6.90;;;6.50;99.90;;;;;;5079934;28;20048;-66
2022/05/09 05:17:52;;;;;;;17.35;6.35;;;6.60;99.90;;;;;;5098493;28;20126;-67
2022/05/09 05:20:18;;;;;;;21.08;7.00;;;6.60;99.90;;;;;;5097511;28;20115;-67
2022/05/09 05:22:48;;;;;;;17.08;6.70;;;6.80;99.90;;;;;;5082139;28;20102;-67
2022/05/09 05:25:24;;;;;;;17.63;7.30;;;6.80;99.90;;;;;;5078901;28;20118;-67
2022/05/09 05:27:50;;;;;;;14.52;6.82;;;6.90;99.90;;;;;;5101875;28;20039;-67
2022/05/09 05:30:16;;;;;;;16.63;6.47;;;7.00;99.90;;;;;;5076530;28;20063;-67
2022/05/09 05:32:42;;;;;;;18.63;6.68;;;7.10;99.90;;;;;;5096383;28;20052;-67
2022/05/09 05:35:17;;;;;;;17.67;6.82;;;7.20;99.90;;;;;;5084521;28;20032;-67
2022/05/09 05:37:43;;;;;;;16.13;6.20;;;7.30;99.90;;;;;;5093926;28;20047;-67
2022/05/09 05:40:10;;;;;;;16.92;6.47;;;7.30;99.90;;;;;;5062884;28;20547;-67
2022/05/09 05:42:39;;;;;;;15.18;6.57;;;7.40;99.90;;;;;;5099574;28;20074;-68
2022/05/09 05:45:05;;;;;;;21.23;7.80;;;7.50;99.90;;;;;;5095155;28;20044;-66
2022/05/09 05:47:31;;;;;;;21.23;7.53;;;7.50;99.90;;;;;;5096135;28;20780;-66
2022/05/09 05:49:57;;;;;;;17.63;6.38;;;7.60;99.90;;;;;;5068552;28;20055;-66
2022/05/09 05:52:23;;;;;;;14.57;6.13;;;7.70;99.90;;;;;;5077360;28;20448;-66
2022/05/09 05:54:48;;;;;;;15.80;6.55;;;7.80;99.90;;;;;;5080238;28;20135;-67
2022/05/09 05:57:19;;;;;;;19.20;7.10;;;7.90;99.90;;;;;;5098606;28;20471;-67
2022/05/09 06:00:06;;;;;;;16.67;6.32;;;8.20;99.90;;;;;;5095213;28;20044;-67
2022/05/09 06:02:32;;;;;;;23.63;6.85;;;8.30;99.90;;;;;;5079015;28;20434;-67
2022/05/09 06:04:58;;;;;;;16.55;6.25;;;8.50;99.90;;;;;;5083679;28;20112;-67
2022/05/09 06:07:24;;;;;;;13.45;5.60;;;8.60;99.90;;;;;;5095785;28;20066;-66
2022/05/09 06:09:56;;;;;;;17.13;6.13;;;8.90;99.90;;;;;;5099783;28;20043;-67
2022/05/09 06:12:28;;;;;;;;;;;9.20;99.90;;;;;;5079611;28;20109;-67
2022/05/09 06:17:54;;;;;;;19.42;6.57;;;9.50;99.90;;;;;;5099827;28;20488;-67
2022/05/09 06:20:26;;;;;;;;;;;9.70;99.90;;;;;;5082171;28;20694;-67
2022/05/09 06:22:54;;;;;;;14.30;6.30;;;9.90;99.90;;;;;;5083143;28;19998;-67
2022/05/09 06:25:21;;;;;;;18.00;5.88;;;10.10;99.90;;;;;;5081752;28;20113;-67
2022/05/09 06:27:48;;;;;;;17.25;6.13;;;10.30;99.90;;;;;;5080217;28;20048;-67
2022/05/09 06:30:16;;;;;;;19.88;6.80;;;10.50;99.90;;;;;;5095993;28;20054;-67
2022/05/09 06:32:42;;;;;;;13.20;5.78;;;10.70;99.90;;;;;;5105547;28;20040;-67
2022/05/09 06:35:11;;;;;;;15.02;5.32;;;10.80;99.90;;;;;;5092805;28;20055;-67
2022/05/09 06:37:38;;;;;;;21.35;6.43;;;10.90;99.90;;;;;;5099548;28;20030;-67
2022/05/09 06:40:06;;;;;;;16.98;5.88;;;11.00;99.90;;;;;;5097024;28;20472;-67
2022/05/09 06:42:33;;;;;;;14.20;5.40;;;11.20;99.90;;;;;;5080159;28;20052;-67
2022/05/09 06:44:58;;;;;;;18.30;6.05;;;11.30;99.90;;;;;;5075601;28;20072;-68
2022/05/09 06:47:24;;;;;;;16.85;5.93;;;11.50;99.90;;;;;;5077798;28;20059;-67
2022/05/09 06:49:50;;;;;;;17.35;5.63;;;11.60;99.90;;;;;;5096696;28;20043;-67
2022/05/09 06:52:15;;;;;;;14.35;5.95;;;11.70;99.90;;;;;;5062734;28;20048;-68
2022/05/09 06:54:41;;;;;;;12.50;5.22;;;11.90;99.90;;;;;;5082712;28;20105;-68
2022/05/09 06:57:07;;;;;;;17.40;6.55;;;11.90;99.90;;;;;;5079763;28;20044;-67
2022/05/09 06:59:33;;;;;;;19.20;5.70;;;12.00;99.90;;;;;;5062558;28;20044;-67
2022/05/09 07:02:00;;;;;;;13.00;5.82;;;12.20;99.90;;;;;;5078296;28;20040;-67
2022/05/09 07:04:25;;;;;;;14.65;5.72;;;12.40;99.90;;;;;;5095654;28;20048;-68
2022/05/09 07:06:51;;;;;;;13.23;4.85;;;12.60;99.90;;;;;;5096422;28;20035;-68
2022/05/09 07:09:17;;;;;;;12.23;5.10;;;12.80;99.90;;;;;;5095656;28;20089;-68
2022/05/09 07:11:43;;;;;;;13.07;4.50;;;12.90;99.90;;;;;;5078061;28;20044;-68
2022/05/09 07:14:09;;;;;;;11.13;4.75;;;13.10;99.90;;;;;;5094300;28;20032;-67
2022/05/09 07:16:36;;;;;;;13.50;5.00;;;13.30;99.90;;;;;;5094727;28;20093;-67
2022/05/09 07:19:04;;;;;;;17.92;5.03;;;13.60;99.90;;;;;;5075545;28;20040;-67
2022/05/09 07:21:31;;;;;;;15.23;5.25;;;13.80;99.90;;;;;;5102451;28;20043;-67
2022/05/09 07:23:58;;;;;;;18.35;5.68;;;14.30;99.90;;;;;;5078282;28;20066;-68
2022/05/09 07:26:23;;;;;;;14.38;4.60;;;14.90;99.90;;;;;;5104065;28;20102;-68
2022/05/09 07:28:49;;;;;;;14.32;4.70;;;15.70;99.30;;;;;;5087085;28;20498;-68
2022/05/09 07:31:16;;;;;;;16.58;5.35;;;16.40;96.90;;;;;;5097329;28;20048;-68
2022/05/09 07:33:45;;;;;;;13.55;4.90;;;17.00;95.60;;;;;;5105528;28;20043;-68
2022/05/09 07:36:11;;;;;;;11.00;3.95;;;17.20;93.80;;;;;;5096439;28;20459;-68
2022/05/09 07:38:37;;;;;;;16.67;4.60;;;17.30;91.00;;;;;;5085958;28;20104;-68
2022/05/09 07:41:03;;;;;;;12.98;4.80;;;17.30;90.10;;;;;;5067031;28;20051;-68
2022/05/09 07:43:30;;;;;;;14.77;4.93;;;17.50;89.70;;;;;;5078070;28;20561;-68
2022/05/09 07:45:56;;;;;;;12.35;4.60;;;17.70;87.00;;;;;;5100013;28;20039;-68
2022/05/09 07:48:25;;;;;;;12.02;4.20;;;17.80;84.50;;;;;;5097031;28;20085;-68
2022/05/09 07:50:52;;;;;;;13.07;5.38;;;17.80;82.60;;;;;;5075930;28;20118;-68
2022/05/09 07:53:22;;;;;;;10.80;4.30;;;17.60;83.40;;;;;;5099852;28;20036;-68
2022/05/09 07:55:49;;;;;;;15.95;5.07;;;17.50;81.40;;;;;;5097084;28;20051;-68
2022/05/09 07:58:14;;;;;;;13.98;4.05;;;17.30;80.90;;;;;;5099244;28;20328;-68
2022/05/09 08:00:42;;;;;;;13.73;4.20;;;17.60;80.40;;;;;;5078485;28;20044;-68
2022/05/09 08:03:14;;;;;;;14.13;4.82;;;18.20;80.60;;;;;;5096662;28;20091;-68
2022/05/09 08:05:40;;;;;;;13.45;4.03;;;18.60;77.50;;;;;;5094621;28;20050;-68
2022/05/09 08:08:06;;;;;;;11.95;4.53;;;18.80;76.40;;;;;;5096112;28;20039;-68
2022/05/09 08:10:32;;;;;;;12.45;4.35;;;18.80;75.20;;;;;;5098877;28;20055;-68
2022/05/09 08:12:58;;;;;;;11.60;4.03;;;18.90;75.80;;;;;;5074332;28;20051;-68
2022/05/09 08:15:30;;;;;;;10.77;3.95;;;19.20;74.40;;;;;;5104428;28;20050;-68
2022/05/09 08:17:56;;;;;;;9.98;3.63;;;19.70;71.40;;;;;;5083133;28;20381;-68
2022/05/09 08:20:23;;;;;;;9.93;3.83;;;20.30;69.30;;;;;;5107751;28;20220;-68
2022/05/09 08:22:59;;;;;;;10.38;3.88;;;20.90;66.10;;;;;;5062207;28;20051;-68
2022/05/09 08:25:25;;;;;;;12.02;3.72;;;21.50;62.50;;;;;;5096655;28;20036;-69
2022/05/09 08:27:51;;;;;;;13.90;3.40;;;21.70;61.10;;;;;;5095811;28;20040;-69
2022/05/09 08:30:20;;;;;;;12.85;3.38;;;22.10;60.80;;;;;;5096699;28;20027;-70
2022/05/09 08:32:46;;;;;;;9.27;3.25;;;22.40;57.50;;;;;;5080368;28;20055;-69
2022/05/09 08:35:13;;;;;;;10.82;3.35;;;22.50;54.50;;;;;;5099097;28;20607;-69
2022/05/09 08:37:39;;;;;;;10.68;3.15;;;22.60;54.20;;;;;;5102825;28;20111;-69
2022/05/09 08:40:06;;;;;;;8.30;2.70;;;22.90;53.10;;;;;;5101080;28;20031;-69
2022/05/09 08:42:47;;;;;;;10.50;3.00;;;23.30;52.70;;;;;;5102200;28;20457;-69
2022/05/09 08:45:26;;;;;;;11.55;3.28;;;23.40;51.10;;;;;;5097390;28;20046;-70
2022/05/09 08:48:32;;;;;;;11.57;2.80;;;23.50;49.30;;;;;;5099118;28;20105;-69
2022/05/09 08:51:16;;;;;;;10.43;3.47;;;23.60;46.30;;;;;;5085776;28;20043;-69
2022/05/09 08:53:43;;;;;;;;;;;23.70;48.10;;;;;;5081074;28;20040;-69
2022/05/09 08:56:16;;;;;;;13.05;2.90;;;23.80;47.00;;;;;;5102516;28;20002;-69
2022/05/09 08:58:59;;;;;;;12.18;2.83;;;23.90;47.30;;;;;;5101306;28;20044;-69
2022/05/09 09:01:33;;;;;;;;;;;24.10;45.90;;;;;;5078636;28;20047;-69
2022/05/09 09:04:05;;;;;;;6.83;2.00;;;24.20;49.00;;;;;;5097854;28;19924;-69
2022/05/09 09:06:49;;;;;;;10.25;2.95;;;24.30;46.90;;;;;;5083169;28;20511;-69
2022/05/09 09:09:29;;;;;;;7.60;2.50;;;24.40;45.80;;;;;;5099439;28;20045;-69
2022/05/09 09:12:26;;;;;;;7.60;2.40;;;24.40;42.50;;;;;;5082806;28;20047;-69
2022/05/09 09:15:09;;;;;;;8.50;3.28;;;24.10;42.20;;;;;;5081025;28;20051;-69
2022/05/09 09:17:56;;;;;;;9.85;3.33;;;23.80;44.70;;;;;;5096780;28;20476;-69
2022/05/09 09:20:50;;;;;;;8.55;2.33;;;24.10;44.20;;;;;;5061938;28;20036;-69
2022/05/09 09:23:37;;;;;;;9.88;2.80;;;24.50;42.20;;;;;;5097525;28;20043;-69
2022/05/09 09:26:20;;;;;;;10.85;2.70;;;24.20;42.00;;;;;;5097061;28;20377;-69
2022/05/09 09:29:04;;;;;;;17.23;2.88;;;24.30;42.20;;;;;;5082752;28;20040;-69
2022/05/09 09:31:41;;;;;;;8.45;2.00;;;24.00;41.40;;;;;;5076598;28;20101;-69
2022/05/09 09:34:33;;;;;;;8.27;2.35;;;23.90;39.10;;;;;;5101259;28;20130;-71
2022/05/09 09:37:10;;;;;;;6.47;2.55;;;23.90;40.70;;;;;;5045763;28;20075;-69
2022/05/09 09:39:36;;;;;;;7.78;2.78;;;24.40;41.00;;;;;;5095479;28;20100;-69
2022/05/09 09:42:02;;;;;;;7.43;2.15;;;24.50;41.30;;;;;;5099174;28;20065;-69
2022/05/09 09:44:29;;;;;;;5.05;1.30;;;24.60;40.60;;;;;;5074645;28;20047;-68
2022/05/09 09:47:12;;;;;;;9.15;2.42;;;24.80;39.20;;;;;;5098123;28;20637;-68
2022/05/09 09:49:41;;;;;;;11.20;2.38;;;24.90;39.90;;;;;;5097172;28;20119;-68
2022/05/09 09:52:18;;;;;;;8.48;2.53;;;25.00;40.10;;;;;;5095340;28;20084;-68
2022/05/09 09:54:56;;;;;;;7.28;2.00;;;24.90;39.00;;;;;;5077203;28;20056;-69
2022/05/09 09:57:28;;;;;;;12.23;3.05;;;24.80;41.80;;;;;;5098353;28;20471;-69
2022/05/09 09:59:55;;;;;;;8.02;2.65;;;24.80;41.00;;;;;;5076066;28;20044;-69
2022/05/09 10:02:30;;;;;;;9.57;2.33;;;24.70;41.80;;;;;;5096164;28;20099;-69
2022/05/09 10:04:57;;;;;;;7.05;2.00;;;24.90;41.40;;;;;;5094360;28;20039;-69
2022/05/09 10:07:34;;;;;;;7.22;2.25;;;24.90;41.50;;;;;;5076567;28;20051;-69
2022/05/09 10:10:11;;;;;;;6.82;1.75;;;25.20;41.10;;;;;;5082172;28;20039;-69
2022/05/09 10:12:44;;;;;;;10.48;2.85;;;25.50;41.40;;;;;;5093910;28;20912;-69
2022/05/09 10:15:23;;;;;;;9.60;2.42;;;25.70;40.50;;;;;;5081846;28;20113;-69
2022/05/09 10:17:49;;;;;;;5.50;1.85;;;25.80;39.60;;;;;;5094127;28;20544;-69
2022/05/09 10:20:24;;;;;;;9.93;2.17;;;25.80;39.30;;;;;;5097512;28;20397;-70
2022/05/09 10:25:36;;;;;;;7.63;2.28;;;25.70;40.90;;;;;;5099509;28;20051;-69
2022/05/09 10:28:15;;;;;;;8.23;1.88;;;25.70;40.30;;;;;;5097704;28;20075;-70
2022/05/09 10:30:44;;;;;;;9.20;1.92;;;25.80;39.40;;;;;;5094324;28;20489;-70
2022/05/09 10:33:37;;;;;;;9.45;2.00;;;25.80;39.60;;;;;;5094125;28;20052;-69
2022/05/09 10:36:08;;;;;;;8.00;2.08;;;26.00;38.70;;;;;;5092225;28;20487;-68
2022/05/09 10:38:45;;;;;;;7.43;2.65;;;26.00;39.40;;;;;;5094812;28;20546;-69
2022/05/09 10:41:24;;;;;;;8.32;2.20;;;26.10;40.40;;;;;;5096657;28;20344;-70
2022/05/09 10:44:00;;;;;;;6.47;2.10;;;26.00;40.00;;;;;;5096015;28;20039;-68
2022/05/09 10:46:52;;;;;;;10.88;2.47;;;25.90;38.30;;;;;;5101957;28;20109;-70
2022/05/09 10:49:29;;;;;;;6.97;2.15;;;25.80;39.00;;;;;;5050412;28;20056;-70
2022/05/09 10:52:04;;;;;;;6.75;1.80;;;25.70;38.30;;;;;;5101618;28;20075;-70
2022/05/09 10:54:45;;;;;;;8.35;2.08;;;25.60;39.30;;;;;;5080103;28;20074;-70
2022/05/09 10:57:33;;;;;;;6.53;2.15;;;25.80;39.10;;;;;;5099310;28;20040;-69
2022/05/09 11:00:24;;;;;;;7.20;1.77;;;25.90;37.80;;;;;;5077485;28;20055;-69
2022/05/09 11:03:18;;;;;;;6.07;1.80;;;25.90;38.20;;;;;;5083003;28;20089;-69
2022/05/09 11:06:23;;;;;;;8.07;1.80;;;26.00;38.30;;;;;;5095864;28;20122;-71
2022/05/09 11:08:57;;;;;;;7.60;2.20;;;25.90;38.20;;;;;;5078870;28;20148;-71
2022/05/09 11:12:01;;;;;;;9.98;2.50;;;26.30;39.40;;;;;;5079278;28;20048;-70
2022/05/09 11:15:00;;;;;;;6.90;2.07;;;26.70;37.80;;;;;;5104496;28;20116;-70
2022/05/09 11:17:26;;;;;;;5.90;1.75;;;26.80;36.50;;;;;;5078351;28;20036;-71
2022/05/09 11:20:25;;;;;;;8.27;2.10;;;26.50;37.00;;;;;;5060902;28;20054;-70
2022/05/09 11:23:20;;;;;;;8.73;2.38;;;26.60;38.80;;;;;;5096260;28;20048;-70
2022/05/09 11:26:11;;;;;;;157.10;12.43;;;26.80;39.60;;;;;;5097121;28;20063;-67
2022/05/09 11:28:50;;;;;;;6.25;1.98;;;26.90;36.70;;;;;;5098723;28;20043;-69
2022/05/09 11:31:40;;;;;;;7.95;2.00;;;26.70;38.00;;;;;;5094220;28;20114;-69
2022/05/09 11:34:27;;;;;;;6.57;2.13;;;27.00;38.60;;;;;;5096766;28;20043;-69
2022/05/09 11:36:59;;;;;;;6.60;1.80;;;27.20;37.30;;;;;;5083781;28;20036;-69
2022/05/09 11:39:55;;;;;;;8.32;2.10;;;27.20;37.30;;;;;;5095172;28;21018;-69
2022/05/09 11:45:59;;;;;;;5.00;1.95;;;27.50;36.80;;;;;;5075958;28;20051;-69
2022/05/09 11:48:34;;;;;;;5.85;1.98;;;27.80;37.50;;;;;;5067038;28;20044;-69
2022/05/09 11:51:09;;;;;;;5.40;2.08;;;28.10;37.00;;;;;;5104926;28;20075;-69
2022/05/09 11:53:40;;;;;;;7.70;2.20;;;28.20;37.10;;;;;;5075768;28;20052;-69
2022/05/09 11:56:07;;;;;;;11.60;2.13;;;28.50;37.00;;;;;;5096147;28;20084;-67
2022/05/09 11:58:43;;;;;;;6.10;1.70;;;28.50;37.10;;;;;;5096192;28;20097;-67
2022/05/09 12:01:09;;;;;;;6.22;1.98;;;28.70;37.00;;;;;;5095663;28;20395;-67
2022/05/09 12:03:41;;;;;;;8.40;2.33;;;28.80;36.40;;;;;;5095094;28;20078;-67
2022/05/09 12:06:32;;;;;;;6.80;1.88;;;28.90;35.90;;;;;;5096124;28;20054;-67
2022/05/09 12:08:58;;;;;;;5.43;1.65;;;28.80;35.40;;;;;;5097252;28;20119;-67
2022/05/09 12:11:30;;;;;;;6.70;1.80;;;28.70;36.30;;;;;;5098749;28;20294;-66
2022/05/09 12:13:59;;;;;;;6.55;2.00;;;28.70;36.00;;;;;;5094217;28;20027;-67
2022/05/09 12:16:36;;;;;;;5.60;2.05;;;28.60;36.10;;;;;;5098159;28;20044;-66
2022/05/09 12:19:11;;;;;;;6.07;2.08;;;28.70;36.00;;;;;;5075125;28;20040;-66
2022/05/09 12:21:37;;;;;;;8.73;2.40;;;28.60;36.70;;;;;;5097697;28;20403;-66
2022/05/09 12:24:14;;;;;;;6.32;2.17;;;28.70;35.80;;;;;;5097194;28;20036;-68
2022/05/09 12:26:43;;;;;;;9.85;2.65;;;28.70;34.50;;;;;;5077296;28;20505;-67
2022/05/09 12:29:11;;;;;;;6.35;2.33;;;28.40;35.40;;;;;;5097650;28;20119;-67
2022/05/09 12:31:51;;;;;;;6.55;2.10;;;28.10;35.60;;;;;;5095261;28;20058;-67
2022/05/09 12:34:44;;;;;;;5.55;1.58;;;27.90;35.70;;;;;;5097280;28;20491;-65
2022/05/09 12:37:12;;;;;;;4.63;1.58;;;27.70;36.00;;;;;;5075826;28;20043;-66
2022/05/09 12:39:48;;;;;;;7.45;1.83;;;27.60;36.10;;;;;;5097928;28;20040;-67
2022/05/09 12:42:41;;;;;;;6.00;1.88;;;27.50;35.80;;;;;;5097967;28;20554;-67
2022/05/09 12:45:07;;;;;;;8.27;1.70;;;27.50;36.50;;;;;;5076928;28;20035;-67
2022/05/09 12:47:36;;;;;;;8.05;1.90;;;27.40;35.80;;;;;;5098488;28;20031;-66
2022/05/09 12:50:07;;;;;;;6.40;1.50;;;27.40;37.10;;;;;;5092550;28;20387;-66
2022/05/09 12:52:36;;;;;;;5.68;1.63;;;27.50;36.80;;;;;;5093523;28;20032;-66
2022/05/09 12:57:48;;;;;;;7.75;1.98;;;27.50;36.80;;;;;;5099504;28;20344;-66
2022/05/09 13:00:30;;;;;;;5.05;1.60;;;27.60;37.50;;;;;;5101956;28;20039;-66
2022/05/09 13:03:05;;;;;;;5.20;1.65;;;27.60;38.10;;;;;;5100955;28;20483;-66
2022/05/09 13:05:38;;;;;;;6.15;1.60;;;27.60;36.70;;;;;;5097100;28;20036;-66
2022/05/09 13:08:07;;;;;;;8.68;1.90;;;27.50;36.90;;;;;;5099532;28;20050;-66
2022/05/09 13:10:52;;;;;;;7.68;1.80;;;27.40;36.70;;;;;;5101922;28;20043;-70
2022/05/09 13:13:30;;;;;;;5.53;1.98;;;27.20;36.90;;;;;;5084408;28;20131;-68
2022/05/09 13:15:56;;;;;;;5.40;1.52;;;27.10;37.40;;;;;;5101947;28;20104;-67
2022/05/09 13:18:25;;;;;;;7.60;1.50;;;27.10;37.70;;;;;;5100926;28;20543;-66
2022/05/09 13:20:55;;;;;;;6.53;1.35;;;27.10;37.40;;;;;;5080152;28;20516;-67
2022/05/09 13:23:48;;;;;;;6.65;1.25;;;26.90;37.00;;;;;;5097866;28;20503;-70
2022/05/09 13:26:22;;;;;;;5.35;1.55;;;26.80;38.90;;;;;;5078739;28;20052;-68